• Join FlightAware (Why Join?)
  • Login
  • US Flag 
08:57PM EDT


 

Airport Tracker/Info


-or-


 

Live Flight TrackerFlight Track Log ✈ N534QS ✈ 08-Jul-2013 ✈ KMDW - KSRR

Flight Track Log - Related Links

Times and Time Zones

All times are in EDT time to prevent confusion due to time zone crossing. See the N534QS flight status page for this flight to view local times or setup timezone preferences in your user account.

Time Position Orientation Groundspeed Altitude Reporting Facility
EDT Latitude Longitude Course Direction KTS MPH feet Rate Location/Type
12:28PM 41.7500 -87.7833 201° Southwest 187 215 2,800  Level Chicago TRACON
12:29PM 41.6822 -87.8425 213° Southwest 249 287 7,300 3,600 Climbing Chicago Center
12:30PM 41.6119 -87.8972 210° Southwest 287 330 11,200 2,340 Climbing Chicago Center
12:31PM 41.5561 -87.9731 225° Southwest 292 336 12,200 1,440 Climbing Chicago Center
12:32PM 41.4817 -88.0422 215° Southwest 338 389 14,200 2,460 Climbing Chicago Center
12:33PM 41.2822 -88.2256 201° Southwest  Level FlightAware Approximate
12:33PM 41.3692 -88.1056 203° Southwest 376 433 17,400  Level Chicago Center
12:34PM 41.2653 -88.1603 202° Southwest 403 464 20,400 2,580 Climbing Chicago Center
12:35PM 41.1572 -88.2194 202° Southwest 416 479 22,800 2,340 Climbing Chicago Center
12:36PM 41.0197 -88.2944 202° Southwest 443 510 25,300 2,160 Climbing Chicago Center
12:37PM 40.8983 -88.3572 201° Southwest 466 536 27,300 2,040 Climbing Chicago Center
12:38PM 40.7767 -88.4278 204° Southwest 477 549 29,600 2,580 Climbing Chicago Center
12:39PM 40.6725 -88.5294 217° Southwest 467 537 32,700 2,400 Climbing Chicago Center
12:40PM 40.5742 -88.6394 220° Southwest 466 536 34,600 2,100 Climbing Chicago Center
12:41PM 40.4644 -88.7600 220° Southwest 471 542 37,100 2,220 Climbing Chicago Center
12:42PM 40.3642 -88.8703 220° Southwest 470 541 39,300 1,800 Climbing Chicago Center
12:43PM 40.2633 -88.9808 220° Southwest 470 541 40,900 1,560 Climbing Chicago Center
12:45PM 40.1622 -89.0928 220° Southwest 474 545 42,600 1,020 Climbing Chicago Center
12:45PM 40.0592 -89.2036 219° Southwest 473 544 43,000 180 Climbing Kansas City Center
12:47PM 39.9547 -89.3167 220° Southwest 478 550 43,000  Level Kansas City Center
12:48PM 39.8403 -89.4631 225° Southwest 478 550 43,000  Level Kansas City Center
12:49PM 39.7758 -89.6083 240° Southwest 465 535 43,000  Level Kansas City Center
12:50PM 39.7267 -89.7683 248° West 471 542 43,000  Level Kansas City Center
12:51PM 39.6786 -89.9194 248° West 470 541 43,000  Level Kansas City Center
12:52PM 39.6283 -90.0756 247° West 471 542 43,000  Level Kansas City Center
12:53PM 39.5781 -90.2331 248° West 474 545 43,000  Level Kansas City Center
12:54PM 39.5169 -90.4222 247° West 476 548 43,000  Level Kansas City Center
12:55PM 39.4383 -90.5594 233° Southwest 477 549 43,000  Level Kansas City Center
12:56PM 39.3603 -90.6947 233° Southwest 474 545 43,000  Level Kansas City Center
12:57PM 39.3014 -90.8431 243° Southwest 469 540 43,000  Level Kansas City Center
12:58PM 39.2503 -90.9978 247° West 471 542 43,000  Level Kansas City Center
12:59PM 39.1911 -91.1861 248° West 474 545 43,000  Level Kansas City Center
01:00PM 39.1381 -91.3439 247° West 482 555 43,000  Level Kansas City Center
01:01PM 39.0856 -91.5003 247° West 480 552 43,000  Level Kansas City Center
01:02PM 39.0328 -91.6564 247° West 479 551 43,000  Level Kansas City Center
01:03PM 38.9722 -91.8342 246° West 478 550 43,000  Level Kansas City Center
01:04PM 38.9194 -91.9914 247° West 479 551 43,000  Level Kansas City Center
01:06PM 38.8125 -92.3044 246° West 479 551 43,000  Level Kansas City Center
01:07PM 38.7472 -92.4900 246° West 478 550 43,000  Level Kansas City Center
01:08PM 38.6928 -92.6458 246° West 479 551 43,000  Level Kansas City Center
01:09PM 38.6369 -92.8053 246° West 486 559 43,000  Level Kansas City Center
01:10PM 38.5814 -92.9619 246° West 488 562 43,000  Level Kansas City Center
01:11PM 38.5261 -93.1169 246° West 485 558 43,000  Level Kansas City Center
01:12PM 38.4622 -93.2983 246° West 474 545 43,000  Level Kansas City Center
01:13PM 38.4092 -93.4461 245° Southwest 465 535 43,000  Level Kansas City Center
01:14PM 38.3572 -93.5933 246° West 460 529 43,000  Level Kansas City Center
01:15PM 38.3042 -93.7422 246° West 461 531 43,000  Level Kansas City Center
01:17PM 38.2506 -93.8908 245° Southwest 462 532 43,000  Level Kansas City Center
01:18PM 38.1964 -94.0372 245° Southwest 460 529 43,000  Level Kansas City Center
01:19PM 38.1331 -94.2100 245° Southwest 461 531 43,000  Level Kansas City Center
01:20PM 38.0811 -94.3511 245° Southwest 460 529 43,000  Level Kansas City Center
01:21PM 38.0303 -94.4892 245° Southwest 455 524 43,000  Level Kansas City Center
01:22PM 37.9703 -94.6522 245° Southwest 455 524 43,000  Level Kansas City Center
01:23PM 37.9175 -94.7939 245° Southwest 460 529 43,000  Level Kansas City Center
01:24PM 37.8564 -94.9575 245° Southwest 460 529 43,000  Level Kansas City Center
01:25PM 37.7992 -95.1086 244° Southwest 458 527 43,000  Level Kansas City Center
01:26PM 37.7444 -95.2517 244° Southwest 455 524 43,000  Level Kansas City Center
01:27PM 37.6903 -95.3961 245° Southwest 455 524 43,000  Level Kansas City Center
01:28PM 37.6350 -95.5411 244° Southwest 457 526 43,000  Level Kansas City Center
01:29PM 37.5792 -95.6856 244° Southwest 458 527 43,000  Level Kansas City Center
01:30PM 37.5117 -95.8603 244° Southwest 461 531 43,000  Level Kansas City Center
01:31PM 37.4558 -96.0050 244° Southwest 462 532 43,000  Level Kansas City Center
01:32PM 37.3994 -96.1478 244° Southwest 459 528 43,000  Level Kansas City Center
01:33PM 37.3444 -96.2900 244° Southwest 456 525 43,000  Level Kansas City Center
01:34PM 37.2819 -96.4467 243° Southwest 459 528 43,000  Level Kansas City Center
01:35PM 37.2244 -96.5908 243° Southwest 460 529 43,000  Level Kansas City Center
01:36PM 37.1675 -96.7353 244° Southwest 460 529 43,000  Level Kansas City Center
01:37PM 37.1097 -96.8786 243° Southwest 459 528 43,000  Level Kansas City Center
01:38PM 37.0525 -97.0233 244° Southwest 462 532 43,000  Level Kansas City Center
01:39PM 36.9942 -97.1681 243° Southwest 463 533 43,000  Level Kansas City Center
01:40PM 36.9239 -97.3392 243° Southwest 461 531 43,000  Level Kansas City Center
01:41PM 36.8644 -97.4872 243° Southwest 468 539 43,000  Level Kansas City Center
01:42PM 36.8036 -97.6353 243° Southwest 474 545 43,000  Level Kansas City Center
01:43PM 36.7403 -97.7886 243° Southwest 471 542 43,000  Level Kansas City Center
01:44PM 36.6792 -97.9344 242° Southwest 472 543 43,000  Level Kansas City Center
01:45PM 36.6200 -98.0775 243° Southwest 468 539 43,000  Level Kansas City Center
01:46PM 36.5597 -98.2211 242° Southwest 467 537 43,000  Level Kansas City Center
01:48PM 36.5033 -98.3656 244° Southwest 464 534 43,000  Level Kansas City Center
01:49PM 36.4317 -98.5331 242° Southwest 461 531 43,000  Level Kansas City Center
01:50PM 36.3733 -98.6736 243° Southwest 458 527 43,000  Level Kansas City Center
01:51PM 36.3133 -98.8131 242° Southwest 457 526 43,000  Level Kansas City Center
01:52PM 36.2539 -98.9533 242° Southwest 460 529 43,000  Level Kansas City Center
01:53PM 36.1889 -99.1086 243° Southwest 458 527 43,000  Level Kansas City Center
01:54PM 36.1319 -99.2472 243° Southwest 455 524 43,000  Level Kansas City Center
01:55PM 36.0642 -99.3969 241° Southwest 467 537 43,000  Level Kansas City Center
01:57PM 35.9422 -99.6739 242° Southwest 462 532 43,000  Level Albuquerque Center
01:58PM 35.8814 -99.8139 242° Southwest 463 533 43,000  Level Albuquerque Center
01:58PM 35.8442 -99.8983 241° Southwest 463 533 43,000  Level Kansas City Center
02:00PM 35.7703 -100.0672 242° Southwest 466 536 43,000  Level Kansas City Center
02:01PM 35.7092 -100.2089 242° Southwest 468 539 43,000  Level Kansas City Center
02:02PM 35.6431 -100.3542 241° Southwest 465 535 43,000  Level Kansas City Center
02:03PM 35.5806 -100.4939 241° Southwest 466 536 43,000  Level Kansas City Center
02:04PM 35.4939 -100.6889 241° Southwest 466 536 43,000  Level Albuquerque Center
02:05PM 35.4294 -100.8269 240° Southwest 466 536 43,000  Level Albuquerque Center
02:06PM 35.3669 -100.9664 241° Southwest 467 537 43,000  Level Albuquerque Center
02:07PM 35.2908 -101.1344 241° Southwest 470 541 43,000  Level Albuquerque Center
02:08PM 35.2272 -101.2728 241° Southwest 467 537 43,000  Level Albuquerque Center
02:09PM 35.1672 -101.4069 241° Southwest 468 539 43,000  Level Albuquerque Center
02:10PM 35.1053 -101.5456 241° Southwest 465 535 43,000  Level Albuquerque Center
02:11PM 35.0367 -101.6858 239° Southwest 470 541 43,000  Level Albuquerque Center
02:12PM 34.9681 -101.8333 240° Southwest 469 540 43,000  Level Albuquerque Center
02:13PM 34.9039 -101.9719 241° Southwest 469 540 43,000  Level Albuquerque Center
02:14PM 34.8400 -102.1089 240° Southwest 465 535 43,000  Level Albuquerque Center
02:15PM 34.7758 -102.2461 240° Southwest 466 536 43,000  Level Albuquerque Center
02:16PM 34.7106 -102.3856 240° Southwest 472 543 43,000  Level Albuquerque Center
02:17PM 34.6317 -102.5522 240° Southwest 475 547 43,000  Level Albuquerque Center
02:19PM 34.5683 -102.6842 240° Southwest 472 543 43,000 -840 Level Albuquerque Center
02:20PM 34.5031 -102.8217 240° Southwest 467 537 41,400 -1,800 Descending Albuquerque Center
02:21PM 34.4444 -102.9708 245° Southwest 476 548 39,400 -2,040 Descending Albuquerque Center
02:22PM 34.3900 -103.1186 246° West 480 552 37,300 -2,160 Descending Albuquerque Center
02:23PM 34.3331 -103.2694 245° Southwest 485 558 35,000 -2,460 Descending Albuquerque Center
02:24PM 34.2667 -103.4458 246° West 488 562 32,300 -2,280 Descending Albuquerque Center
02:25PM 34.2189 -103.5714 245° Southwest 492 566 30,400 -2,280 Descending Albuquerque Center
02:26PM 34.1478 -103.7556 245° Southwest 500 575 27,700 -2,520 Descending Albuquerque Center
02:27PM 34.0911 -103.9042 245° Southwest 491 565 25,300 -2,280 Descending Albuquerque Center
02:28PM 34.0381 -104.0419 245° Southwest 466 536 23,000 -2,400 Descending Albuquerque Center
02:29PM 33.9819 -104.1872 245° Southwest 446 513 20,500 -2,640 Descending Albuquerque Center
02:30PM 33.9336 -104.3111 245° Southwest 416 479 17,700 -2,940 Descending Albuquerque Center
02:31PM 33.8858 -104.4328 245° Southwest 406 467 14,500 -2,880 Descending Albuquerque Center
02:32PM 33.8369 -104.5564 245° Southwest 384 442 11,800 -1,320 Descending Albuquerque Center
02:33PM 33.7958 -104.6625 245° Southwest 355 409 11,800  Level Albuquerque Center
02:34PM 33.7561 -104.7586 244° Southwest 305 351 11,800  Level Albuquerque Center
02:35PM 33.7194 -104.8522 245° Southwest 309 356 11,800  Level Albuquerque Center
02:36PM 33.6831 -104.9439 245° Southwest 309 356 11,800  Level Albuquerque Center
02:37PM 33.6442 -105.0425 245° Southwest 306 352 11,800  Level Albuquerque Center
02:38PM 33.6136 -105.1181 244° Southwest 250 288 11,800  Level Albuquerque Center